Time;durP1;ratioP1;P1;durP2;ratioP2;P2;SDS_P1;SDS_P2;PMS_P1;PMS_P2;Temp;Humidity;BMP_temperature;BMP_pressure;BME280_temperature;BME280_humidity;BME280_pressure;Samples;Min_cycle;Max_cycle;Signal;HPM_P1;HPM_P2
2022/07/05 00:02:25;;;;;;;5.50;3.20;;;23.40;62.90;;;;;;5054140;28;20476;-12
2022/07/05 00:04:51;;;;;;;6.35;3.13;;;23.30;63.00;;;;;;5054448;28;20083;-12
2022/07/05 00:07:18;;;;;;;3.58;2.63;;;23.20;63.20;;;;;;5054614;28;20029;-12
2022/07/05 00:09:56;;;;;;;4.38;2.47;;;23.00;63.40;;;;;;5054407;28;20029;-12
2022/07/05 00:12:29;;;;;;;6.72;2.83;;;22.90;63.70;;;;;;5053898;28;20361;-12
2022/07/05 00:14:55;;;;;;;4.78;2.40;;;22.90;64.70;;;;;;5053894;28;20025;-13
2022/07/05 00:17:21;;;;;;;5.80;2.50;;;22.80;64.40;;;;;;5053967;28;20021;-12
2022/07/05 00:19:47;;;;;;;9.02;2.95;;;22.70;64.50;;;;;;5054243;28;20025;-12
2022/07/05 00:22:13;;;;;;;7.40;3.13;;;22.60;64.70;;;;;;5053935;28;20420;-13
2022/07/05 00:24:39;;;;;;;9.02;3.20;;;22.60;65.00;;;;;;5053748;28;20087;-12
2022/07/05 00:27:05;;;;;;;3.60;2.40;;;22.40;65.20;;;;;;5054086;28;20036;-12
2022/07/05 00:29:31;;;;;;;9.80;3.30;;;22.40;65.70;;;;;;5053709;28;20466;-14
2022/07/05 00:31:57;;;;;;;2.47;2.15;;;22.20;66.10;;;;;;5053710;28;20031;-12
2022/07/05 00:34:23;;;;;;;3.67;2.15;;;22.10;66.30;;;;;;5053456;28;20024;-13
2022/07/05 00:36:49;;;;;;;5.20;3.00;;;22.00;66.40;;;;;;5053532;28;20029;-13
2022/07/05 00:39:15;;;;;;;7.18;2.38;;;21.90;66.40;;;;;;5053769;28;20064;-13
2022/07/05 00:41:42;;;;;;;4.05;2.42;;;21.90;66.70;;;;;;5053721;28;20036;-13
2022/07/05 00:44:10;;;;;;;6.28;2.53;;;21.90;67.00;;;;;;5019167;28;20056;-13
2022/07/05 00:46:38;;;;;;;4.82;2.92;;;21.90;66.90;;;;;;5053239;28;20392;-13
2022/07/05 00:49:05;;;;;;;7.13;3.20;;;21.80;67.00;;;;;;5054290;28;20029;-13
2022/07/05 00:51:34;;;;;;;4.57;2.55;;;21.80;67.20;;;;;;5053469;28;20028;-13
2022/07/05 00:54:01;;;;;;;4.78;2.67;;;21.90;67.10;;;;;;5053563;28;20017;-12
2022/07/05 00:56:27;;;;;;;5.75;3.05;;;21.80;67.10;;;;;;5053144;28;20098;-13
2022/07/05 00:58:54;;;;;;;4.88;2.60;;;21.80;67.20;;;;;;5053549;28;20036;-14
2022/07/05 01:01:20;;;;;;;4.95;3.00;;;21.70;67.30;;;;;;5053931;28;20032;-13
2022/07/05 01:03:47;;;;;;;9.38;3.15;;;21.80;67.60;;;;;;5053565;28;20025;-13
2022/07/05 01:06:13;;;;;;;6.40;3.08;;;21.80;67.70;;;;;;5053339;28;20091;-13
2022/07/05 01:08:41;;;;;;;7.38;3.40;;;21.70;67.60;;;;;;5053203;28;20021;-12
2022/07/05 01:11:09;;;;;;;7.20;3.42;;;21.70;67.90;;;;;;5053400;28;20036;-12
2022/07/05 01:13:37;;;;;;;5.97;3.28;;;21.70;67.80;;;;;;5052998;28;20484;-13
2022/07/05 01:16:04;;;;;;;5.80;2.78;;;21.70;68.50;;;;;;5052996;28;20120;-13
2022/07/05 01:18:32;;;;;;;5.60;2.95;;;21.70;68.40;;;;;;5052777;28;20021;-13
2022/07/05 01:20:59;;;;;;;5.13;2.95;;;21.60;68.60;;;;;;5053268;28;20040;-13
2022/07/05 01:23:30;;;;;;;6.28;2.90;;;21.60;68.50;;;;;;5053296;28;20033;-12
2022/07/05 01:25:58;;;;;;;6.53;3.17;;;21.60;68.50;;;;;;5053709;28;20071;-13
2022/07/05 01:28:25;;;;;;;7.72;3.42;;;21.60;68.50;;;;;;5052849;28;20032;-12
2022/07/05 01:30:51;;;;;;;6.68;3.22;;;21.50;68.70;;;;;;5052874;28;20451;-14
2022/07/05 01:33:17;;;;;;;5.13;3.40;;;21.40;68.90;;;;;;5053169;28;20103;-14
2022/07/05 01:35:43;;;;;;;7.20;3.28;;;21.40;69.20;;;;;;5053164;28;20032;-13
2022/07/05 01:38:11;;;;;;;5.88;3.03;;;21.30;69.20;;;;;;5034961;28;20047;-13
2022/07/05 01:40:38;;;;;;;4.43;2.63;;;21.20;69.40;;;;;;5052571;28;20036;-13
2022/07/05 01:43:04;;;;;;;4.00;2.50;;;21.10;69.50;;;;;;5052977;28;20029;-14
2022/07/05 01:45:41;;;;;;;5.20;2.72;;;21.00;69.50;;;;;;5052948;28;20039;-13
2022/07/05 01:48:13;;;;;;;5.13;2.50;;;20.90;69.80;;;;;;5053034;28;20353;-13
2022/07/05 01:50:45;;;;;;;5.95;2.92;;;20.90;69.60;;;;;;5052933;28;20061;-13
2022/07/05 01:53:17;;;;;;;4.88;2.72;;;20.80;69.90;;;;;;5052894;28;20037;-13
2022/07/05 01:55:44;;;;;;;4.20;2.57;;;20.80;69.80;;;;;;5053043;28;20032;-14
2022/07/05 01:58:11;;;;;;;3.97;2.72;;;20.60;69.90;;;;;;5052507;28;20362;-13
2022/07/05 02:00:47;;;;;;;8.07;2.90;;;20.60;70.50;;;;;;5052800;28;20114;-13
2022/07/05 02:03:15;;;;;;;4.75;2.90;;;20.60;71.40;;;;;;5052847;28;20048;-13
2022/07/05 02:05:43;;;;;;;6.45;3.05;;;20.60;71.80;;;;;;5055714;28;20025;-13
2022/07/05 02:08:10;;;;;;;5.40;3.13;;;20.50;71.80;;;;;;5056747;28;20055;-15
2022/07/05 02:10:37;;;;;;;5.60;3.45;;;20.50;71.90;;;;;;5056237;28;20197;-13
2022/07/05 02:13:04;;;;;;;7.82;3.30;;;20.40;71.80;;;;;;5038447;28;20488;-13
2022/07/05 02:15:40;;;;;;;6.57;3.10;;;20.30;72.10;;;;;;5056643;28;20034;-13
2022/07/05 02:18:08;;;;;;;5.40;3.30;;;20.30;72.30;;;;;;5056779;28;20495;-12
2022/07/05 02:20:35;;;;;;;6.70;3.17;;;20.20;72.50;;;;;;5056013;28;20029;-13
2022/07/05 02:23:01;;;;;;;8.90;4.10;;;20.20;72.50;;;;;;5056521;28;20388;-13
2022/07/05 02:25:27;;;;;;;5.50;3.25;;;20.20;72.70;;;;;;5056328;28;20484;-13
2022/07/05 02:27:53;;;;;;;5.65;3.50;;;20.10;72.80;;;;;;5056299;28;20060;-13
2022/07/05 02:30:20;;;;;;;5.45;3.20;;;20.10;72.90;;;;;;5056085;28;20025;-15
2022/07/05 02:32:46;;;;;;;7.93;4.60;;;20.00;73.00;;;;;;5038140;28;20060;-14
2022/07/05 02:35:13;;;;;;;7.38;3.28;;;20.00;73.30;;;;;;5056303;28;20021;-13
2022/07/05 02:37:39;;;;;;;7.53;3.50;;;19.90;73.20;;;;;;5055830;28;20025;-13
2022/07/05 02:40:10;;;;;;;5.93;3.10;;;19.90;73.40;;;;;;5056437;28;20051;-13
2022/07/05 02:42:37;;;;;;;6.78;3.40;;;19.90;73.30;;;;;;5055791;28;20040;-13
2022/07/05 02:45:05;;;;;;;4.85;3.00;;;19.90;73.30;;;;;;5055608;28;20128;-13
2022/07/05 02:47:32;;;;;;;4.93;2.88;;;19.90;73.30;;;;;;5055663;28;20112;-13
2022/07/05 02:50:02;;;;;;;5.57;3.60;;;19.90;73.20;;;;;;5055708;28;20033;-14
2022/07/05 02:52:28;;;;;;;6.38;4.00;;;19.90;73.40;;;;;;5055636;28;20052;-13
2022/07/05 02:54:54;;;;;;;7.13;3.97;;;19.90;73.30;;;;;;5055509;28;20017;-13
2022/07/05 02:57:20;;;;;;;11.48;3.60;;;19.90;73.40;;;;;;5055162;28;20401;-13
2022/07/05 02:59:46;;;;;;;4.93;3.28;;;19.80;73.50;;;;;;5038111;28;20025;-13
2022/07/05 03:02:12;;;;;;;5.40;3.05;;;19.80;73.50;;;;;;5055786;28;20032;-14
2022/07/05 03:04:38;;;;;;;5.45;3.50;;;19.70;73.60;;;;;;5055085;28;20033;-14
2022/07/05 03:10:26;;;;;;;5.05;3.45;;;19.60;73.60;;;;;;5055577;28;20486;-14
2022/07/05 03:12:52;;;;;;;5.10;3.40;;;19.50;73.30;;;;;;5055100;28;20025;-13
2022/07/05 03:15:18;;;;;;;5.72;3.50;;;19.40;73.60;;;;;;5054777;28;20071;-15
2022/07/05 03:17:44;;;;;;;6.75;3.72;;;19.40;73.70;;;;;;5054359;28;20032;-13
2022/07/05 03:20:10;;;;;;;5.53;3.85;;;19.30;74.10;;;;;;5055280;28;20025;-12
2022/07/05 03:22:36;;;;;;;6.53;3.30;;;19.40;74.20;;;;;;5055132;28;20029;-14
2022/07/05 03:25:02;;;;;;;8.52;4.78;;;19.40;74.20;;;;;;5055448;28;20032;-13
2022/07/05 03:27:28;;;;;;;12.77;4.95;;;19.40;74.60;;;;;;5054904;28;20041;-15
2022/07/05 03:29:54;;;;;;;6.63;4.15;;;19.30;74.60;;;;;;5054827;28;20029;-14
2022/07/05 03:32:20;;;;;;;10.48;4.90;;;19.30;74.70;;;;;;5054648;28;20543;-13
2022/07/05 03:34:46;;;;;;;9.20;4.60;;;19.30;74.90;;;;;;5055141;28;20052;-13
2022/07/05 03:37:12;;;;;;;11.10;5.70;;;19.30;75.10;;;;;;5055492;28;20033;-13
2022/07/05 03:39:38;;;;;;;8.90;5.00;;;19.30;75.00;;;;;;5055027;28;20017;-13
2022/07/05 03:42:05;;;;;;;9.98;5.32;;;19.40;75.00;;;;;;5054815;28;20116;-15
2022/07/05 03:44:32;;;;;;;8.43;5.25;;;19.40;75.10;;;;;;5054308;28;20365;-14
2022/07/05 03:46:59;;;;;;;9.88;5.30;;;19.40;75.10;;;;;;5054593;28;20025;-14
2022/07/05 03:49:25;;;;;;;10.55;5.22;;;19.40;75.20;;;;;;5054778;28;20021;-14
2022/07/05 03:51:51;;;;;;;11.10;4.75;;;19.50;75.30;;;;;;5054788;28;20112;-13
2022/07/05 03:54:17;;;;;;;8.40;5.35;;;19.60;75.20;;;;;;5054442;28;20025;-14
2022/07/05 03:56:43;;;;;;;8.25;4.78;;;19.60;75.10;;;;;;5054151;28;20049;-13
2022/07/05 03:59:10;;;;;;;8.15;4.82;;;19.70;75.10;;;;;;5055081;28;20527;-13
2022/07/05 04:01:35;;;;;;;8.85;6.00;;;19.80;75.10;;;;;;5054381;28;20024;-13
2022/07/05 04:04:02;;;;;;;6.75;5.00;;;19.80;75.10;;;;;;5054313;28;20025;-13
2022/07/05 04:06:28;;;;;;;9.30;5.30;;;19.90;75.10;;;;;;5054303;28;20048;-13
2022/07/05 04:08:54;;;;;;;9.77;4.85;;;19.90;74.90;;;;;;5054151;28;20026;-13
2022/07/05 04:11:20;;;;;;;8.38;4.93;;;20.00;74.80;;;;;;5054064;28;20017;-13
2022/07/05 04:13:46;;;;;;;13.45;5.03;;;20.10;74.80;;;;;;5053974;28;20025;-13
2022/07/05 04:16:12;;;;;;;7.90;5.30;;;20.20;74.70;;;;;;5054049;28;20056;-13
2022/07/05 04:18:38;;;;;;;11.25;6.38;;;20.30;74.70;;;;;;5053821;28;20036;-13
2022/07/05 04:21:04;;;;;;;10.32;7.10;;;20.40;75.10;;;;;;5054219;28;20111;-13
2022/07/05 04:23:31;;;;;;;13.15;6.40;;;20.50;74.90;;;;;;5053882;28;20404;-13
2022/07/05 04:25:57;;;;;;;11.95;5.70;;;20.50;74.70;;;;;;5053833;28;20025;-13
2022/07/05 04:28:23;;;;;;;11.88;6.50;;;20.60;74.50;;;;;;5053294;28;20033;-13
2022/07/05 04:30:49;;;;;;;9.48;5.70;;;20.70;74.50;;;;;;5054069;28;20044;-13
2022/07/05 04:33:15;;;;;;;9.32;4.97;;;20.90;74.40;;;;;;5053722;28;20104;-15
2022/07/05 04:35:40;;;;;;;9.80;5.50;;;20.90;74.10;;;;;;5053634;28;20025;-13
2022/07/05 04:38:06;;;;;;;12.30;6.80;;;21.00;74.00;;;;;;5053826;28;20075;-14
2022/07/05 04:40:32;;;;;;;9.57;6.20;;;21.20;74.60;;;;;;5053442;28;20029;-13
2022/07/05 04:42:58;;;;;;;8.52;5.00;;;21.30;74.20;;;;;;5035532;28;20029;-13
2022/07/05 04:45:24;;;;;;;15.07;7.18;;;21.40;74.00;;;;;;5053350;28;20408;-13
2022/07/05 04:47:50;;;;;;;13.25;6.45;;;21.50;73.50;;;;;;5053446;28;20048;-13
2022/07/05 04:50:16;;;;;;;17.27;6.65;;;21.60;73.40;;;;;;5035862;28;20056;-13
2022/07/05 04:52:42;;;;;;;11.13;6.30;;;21.70;73.20;;;;;;5053729;28;20461;-13
2022/07/05 04:55:08;;;;;;;11.27;6.40;;;21.90;72.80;;;;;;5053324;28;20017;-13
2022/07/05 04:57:39;;;;;;;11.30;6.60;;;22.00;72.60;;;;;;5053075;28;20067;-13
2022/07/05 05:00:06;;;;;;;10.30;6.10;;;22.10;72.60;;;;;;5053818;28;20048;-14
2022/07/05 05:02:32;;;;;;;11.98;7.20;;;22.30;72.10;;;;;;5035180;28;20025;-13
2022/07/05 05:04:58;;;;;;;13.57;7.72;;;22.50;72.30;;;;;;5053507;28;20112;-13
2022/07/05 05:07:24;;;;;;;12.05;7.88;;;22.60;71.50;;;;;;5053157;28;20472;-13
2022/07/05 05:09:50;;;;;;;15.80;8.18;;;22.80;71.10;;;;;;5053460;28;20036;-13
2022/07/05 05:12:16;;;;;;;12.35;7.28;;;22.90;70.60;;;;;;5053076;28;20037;-13
2022/07/05 05:14:42;;;;;;;11.20;6.90;;;23.00;70.20;;;;;;5052844;28;20451;-14
2022/07/05 05:17:08;;;;;;;13.98;6.07;;;23.10;69.90;;;;;;5053372;28;20013;-13
2022/07/05 05:19:34;;;;;;;8.68;4.95;;;23.20;69.50;;;;;;5052841;28;20021;-13
2022/07/05 05:22:00;;;;;;;9.73;5.03;;;23.20;69.10;;;;;;5053474;28;20021;-13
2022/07/05 05:24:27;;;;;;;6.95;4.18;;;23.30;68.90;;;;;;5053196;28;20025;-13
2022/07/05 05:26:53;;;;;;;8.43;4.70;;;23.40;68.60;;;;;;5053008;28;20120;-13
2022/07/05 05:29:20;;;;;;;9.23;4.45;;;23.50;68.70;;;;;;5053049;28;20104;-13
2022/07/05 05:31:47;;;;;;;5.18;3.67;;;23.60;68.30;;;;;;5053151;28;20024;-13
2022/07/05 05:34:13;;;;;;;7.30;4.10;;;23.70;67.60;;;;;;5052791;28;20025;-12
2022/07/05 05:36:40;;;;;;;4.68;3.42;;;23.70;67.20;;;;;;5052838;28;20021;-14
2022/07/05 05:39:06;;;;;;;6.85;3.40;;;23.80;66.90;;;;;;5053521;28;20036;-14
2022/07/05 05:41:32;;;;;;;6.88;3.85;;;23.80;66.80;;;;;;5057234;28;20053;-15
2022/07/05 05:43:58;;;;;;;9.15;3.88;;;23.90;66.80;;;;;;5056998;28;20060;-13
2022/07/05 05:46:24;;;;;;;7.78;4.25;;;23.90;66.50;;;;;;5056598;28;20069;-13
2022/07/05 05:48:50;;;;;;;11.93;4.00;;;24.00;66.40;;;;;;5056739;28;20016;-13
2022/07/05 05:51:16;;;;;;;12.13;3.92;;;24.20;66.10;;;;;;5056791;28;20108;-13
2022/07/05 05:53:45;;;;;;;5.68;3.50;;;24.30;65.50;;;;;;5056644;28;20033;-13
2022/07/05 05:56:11;;;;;;;8.18;3.20;;;24.50;65.00;;;;;;5056787;28;20032;-13
2022/07/05 05:58:37;;;;;;;7.53;3.00;;;24.90;64.50;;;;;;5057217;28;20037;-13
2022/07/05 06:01:03;;;;;;;6.50;2.85;;;25.10;62.70;;;;;;5056934;28;20025;-13
2022/07/05 06:03:29;;;;;;;3.70;2.78;;;25.40;58.00;;;;;;5057157;28;20036;-12
2022/07/05 06:05:56;;;;;;;8.07;3.30;;;25.60;59.20;;;;;;5038608;28;20025;-12
2022/07/05 06:08:23;;;;;;;4.45;2.65;;;25.60;59.10;;;;;;5056200;28;20480;-12
2022/07/05 06:10:49;;;;;;;4.05;2.50;;;25.60;59.50;;;;;;5056746;28;20120;-12
2022/07/05 06:13:15;;;;;;;5.32;2.95;;;25.60;59.50;;;;;;5038442;28;20478;-12
2022/07/05 06:15:42;;;;;;;10.35;2.70;;;25.60;59.50;;;;;;5056367;28;20059;-12
2022/07/05 06:18:09;;;;;;;2.95;2.55;;;25.60;59.50;;;;;;5056303;28;20033;-12
2022/07/05 06:20:37;;;;;;;4.60;2.60;;;25.70;59.60;;;;;;5056329;28;20037;-12
2022/07/05 06:23:05;;;;;;;7.93;2.70;;;25.80;59.40;;;;;;5056524;28;20067;-12
2022/07/05 06:25:32;;;;;;;4.40;2.90;;;25.90;59.00;;;;;;5056060;28;20113;-12
2022/07/05 06:28:07;;;;;;;5.22;2.83;;;26.00;58.90;;;;;;5056265;28;20488;-12
2022/07/05 06:30:35;;;;;;;5.78;2.92;;;26.10;58.30;;;;;;5038041;28;20072;-12
2022/07/05 06:33:02;;;;;;;7.68;2.90;;;26.20;58.40;;;;;;5056490;28;20045;-12
2022/07/05 06:35:31;;;;;;;4.93;2.80;;;26.30;58.20;;;;;;5056249;28;20032;-12
2022/07/05 06:38:05;;;;;;;4.35;2.60;;;26.30;58.20;;;;;;5056081;28;20025;-12
2022/07/05 06:40:33;;;;;;;5.22;2.83;;;26.40;58.30;;;;;;5056303;28;20025;-12
2022/07/05 06:43:02;;;;;;;5.32;2.47;;;26.40;58.40;;;;;;5056040;28;20103;-12
2022/07/05 06:45:29;;;;;;;5.88;3.00;;;26.40;58.30;;;;;;5055697;28;20033;-12
2022/07/05 06:48:06;;;;;;;7.53;2.80;;;26.40;58.10;;;;;;5055650;28;20423;-13
2022/07/05 06:50:37;;;;;;;6.75;3.13;;;26.50;58.00;;;;;;5055436;28;20045;-13
2022/07/05 06:53:05;;;;;;;7.32;3.20;;;26.50;57.70;;;;;;5055704;28;20427;-12
2022/07/05 06:55:31;;;;;;;8.35;3.05;;;26.50;57.80;;;;;;5056208;28;20413;-12
2022/07/05 06:58:06;;;;;;;5.13;2.78;;;26.50;57.80;;;;;;5055326;28;20045;-12
2022/07/05 07:00:32;;;;;;;3.92;2.97;;;26.50;57.70;;;;;;5055941;28;20427;-13
2022/07/05 07:02:59;;;;;;;5.60;2.90;;;26.60;57.70;;;;;;5055735;28;20024;-12
2022/07/05 07:05:25;;;;;;;5.53;3.10;;;26.60;57.50;;;;;;5055362;28;20079;-12
2022/07/05 07:10:37;;;;;;;4.28;2.72;;;26.60;57.40;;;;;;5055474;28;20111;-12
2022/07/05 07:13:04;;;;;;;5.53;2.65;;;26.60;57.50;;;;;;5055163;28;20070;-13
2022/07/05 07:15:30;;;;;;;5.68;2.60;;;26.50;57.40;;;;;;5055227;28;20108;-12
2022/07/05 07:17:57;;;;;;;6.45;3.25;;;26.50;57.40;;;;;;5055156;28;20027;-12
2022/07/05 07:20:23;;;;;;;4.50;2.83;;;26.50;57.30;;;;;;5054956;28;20056;-13
2022/07/05 07:22:49;;;;;;;6.45;2.80;;;26.50;57.20;;;;;;5055091;28;20064;-12
2022/07/05 07:25:15;;;;;;;5.55;3.13;;;26.60;57.00;;;;;;5054930;28;20116;-12
2022/07/05 07:27:46;;;;;;;7.10;3.00;;;26.70;56.50;;;;;;5055221;28;20104;-13
2022/07/05 07:30:14;;;;;;;5.45;2.80;;;27.00;56.10;;;;;;5055192;28;20025;-12
2022/07/05 07:32:41;;;;;;;5.15;2.90;;;27.40;55.70;;;;;;5055234;28;20021;-12
2022/07/05 07:35:09;;;;;;;3.78;2.63;;;27.70;54.90;;;;;;5054977;28;20116;-12
2022/07/05 07:37:35;;;;;;;5.88;2.63;;;27.90;54.30;;;;;;5055144;28;20116;-12
2022/07/05 07:40:04;;;;;;;4.88;2.90;;;28.00;54.00;;;;;;5055061;28;20032;-12
2022/07/05 07:42:30;;;;;;;4.88;3.20;;;28.10;53.90;;;;;;5054812;28;20536;-13
2022/07/05 07:44:57;;;;;;;6.53;3.20;;;28.40;53.40;;;;;;5054807;28;20064;-12
2022/07/05 07:47:23;;;;;;;3.70;2.70;;;28.50;53.00;;;;;;5054976;28;20021;-12
2022/07/05 07:49:49;;;;;;;8.07;3.03;;;28.70;52.90;;;;;;5054828;28;20492;-14
2022/07/05 07:52:15;;;;;;;7.07;2.95;;;28.80;52.40;;;;;;5054528;28;20082;-13
2022/07/05 07:54:41;;;;;;;7.20;3.13;;;28.90;51.90;;;;;;5054978;28;20021;-13
2022/07/05 07:57:07;;;;;;;7.82;3.13;;;28.80;51.80;;;;;;5054424;28;20041;-13
2022/07/05 07:59:34;;;;;;;4.18;2.50;;;28.60;51.60;;;;;;5054741;28;20029;-12
2022/07/05 08:02:00;;;;;;;4.50;2.60;;;28.40;52.20;;;;;;5053894;28;20029;-12
2022/07/05 08:04:27;;;;;;;5.75;3.10;;;28.40;52.70;;;;;;5054053;28;20017;-12
2022/07/05 08:06:53;;;;;;;6.70;2.78;;;28.50;52.60;;;;;;5054127;28;20484;-13
2022/07/05 08:09:19;;;;;;;3.75;2.58;;;28.70;52.10;;;;;;5054559;28;20031;-12
2022/07/05 08:11:47;;;;;;;6.18;3.20;;;28.80;51.90;;;;;;5054140;28;20068;-13
2022/07/05 08:14:14;;;;;;;3.20;2.50;;;29.00;51.20;;;;;;5054381;28;20047;-12
2022/07/05 08:16:40;;;;;;;7.82;2.75;;;29.30;50.50;;;;;;5054412;28;20017;-13
2022/07/05 08:21:50;;;;;;;7.40;2.90;;;29.80;49.20;;;;;;5054110;28;20040;-12
2022/07/05 08:24:17;;;;;;;5.32;2.88;;;30.40;46.20;;;;;;5053721;28;20021;-13
2022/07/05 08:26:43;;;;;;;4.43;2.60;;;30.90;46.10;;;;;;5053770;28;20029;-13
2022/07/05 08:29:11;;;;;;;7.85;3.00;;;31.40;45.10;;;;;;5053663;28;20079;-13
2022/07/05 08:31:41;;;;;;;4.53;2.33;;;31.90;44.30;;;;;;5054083;28;20449;-13
2022/07/05 08:34:08;;;;;;;5.72;3.00;;;32.20;43.90;;;;;;5053927;28;20048;-13
2022/07/05 08:36:34;;;;;;;5.78;3.00;;;32.60;41.90;;;;;;5053856;28;20041;-12
2022/07/05 08:39:00;;;;;;;4.38;2.45;;;32.90;42.10;;;;;;5053598;28;20017;-12
2022/07/05 08:41:28;;;;;;;8.25;3.22;;;33.00;42.10;;;;;;5053526;28;20547;-13
2022/07/05 08:43:57;;;;;;;6.10;2.70;;;32.80;42.70;;;;;;5035547;28;20025;-12
2022/07/05 08:46:25;;;;;;;6.65;2.88;;;32.40;43.30;;;;;;5053513;28;20044;-13
2022/07/05 08:48:52;;;;;;;4.75;2.55;;;32.00;43.20;;;;;;5035993;28;20104;-12
2022/07/05 08:51:23;;;;;;;6.40;2.75;;;32.20;43.60;;;;;;5035625;28;20123;-12
2022/07/05 08:53:52;;;;;;;5.95;2.90;;;32.50;43.10;;;;;;5053997;28;20368;-12
2022/07/05 08:56:19;;;;;;;6.70;2.80;;;32.80;41.90;;;;;;5053178;28;20087;-13
2022/07/05 08:58:45;;;;;;;6.22;3.00;;;33.20;41.90;;;;;;5053626;28;20025;-12
2022/07/05 09:01:13;;;;;;;5.07;3.30;;;33.50;41.40;;;;;;5053577;28;20032;-12
2022/07/05 09:03:43;;;;;;;3.63;2.80;;;33.90;39.30;;;;;;5053429;28;20108;-12
2022/07/05 09:06:12;;;;;;;5.57;2.67;;;34.10;40.10;;;;;;5053056;28;20025;-12
2022/07/05 09:08:40;;;;;;;6.13;3.05;;;34.40;39.20;;;;;;5052878;28;20029;-12
2022/07/05 09:11:09;;;;;;;5.93;2.80;;;34.60;39.00;;;;;;5053016;28;20017;-13
2022/07/05 09:13:37;;;;;;;6.88;3.05;;;34.90;38.80;;;;;;5052428;28;20508;-12
2022/07/05 09:16:03;;;;;;;5.95;3.08;;;35.00;38.30;;;;;;5053125;28;20016;-13
2022/07/05 09:18:49;;;;;;;6.28;2.92;;;35.10;38.20;;;;;;5052764;28;20055;-13
2022/07/05 09:21:19;;;;;;;9.20;3.35;;;35.40;37.20;;;;;;5053468;28;20021;-12
2022/07/05 09:24:01;;;;;;;4.93;2.85;;;35.60;37.90;;;;;;5053214;28;20468;-12
2022/07/05 09:26:35;;;;;;;5.20;2.80;;;35.70;37.50;;;;;;5052788;28;20029;-12
2022/07/05 09:29:03;;;;;;;4.13;2.28;;;35.60;37.80;;;;;;5052849;28;20036;-12
2022/07/05 09:31:32;;;;;;;6.97;2.90;;;35.50;38.50;;;;;;5035245;28;20099;-12
2022/07/05 09:34:07;;;;;;;4.75;2.70;;;35.60;38.50;;;;;;5052850;28;20040;-12
2022/07/05 09:36:52;;;;;;;7.03;2.97;;;35.90;37.50;;;;;;5034867;28;20029;-12
2022/07/05 09:39:37;;;;;;;3.45;2.60;;;36.30;36.80;;;;;;5053121;28;20476;-12
2022/07/05 09:42:26;;;;;;;4.63;2.60;;;36.60;36.70;;;;;;5053178;28;20028;-12
2022/07/05 09:44:57;;;;;;;7.40;3.05;;;36.90;36.20;;;;;;5052793;28;20033;-12
2022/07/05 09:47:29;;;;;;;5.85;2.78;;;37.10;35.50;;;;;;5053103;28;20108;-12
2022/07/05 09:50:06;;;;;;;4.20;2.80;;;37.10;35.90;;;;;;5052974;28;20029;-12
2022/07/05 09:52:33;;;;;;;4.72;2.60;;;37.10;35.70;;;;;;5052888;28;20025;-13
2022/07/05 09:55:04;;;;;;;3.70;2.55;;;36.90;36.00;;;;;;5035003;28;20025;-12
2022/07/05 09:57:31;;;;;;;7.63;2.80;;;36.70;36.20;;;;;;5052245;28;20474;-12
2022/07/05 10:00:03;;;;;;;6.18;2.75;;;36.50;36.40;;;;;;5052962;28;20033;-12
2022/07/05 10:03:00;;;;;;;5.55;2.60;;;36.50;36.80;;;;;;5034663;28;20473;-12
2022/07/05 10:05:31;;;;;;;3.92;2.60;;;36.70;35.80;;;;;;5052568;28;20035;-12
2022/07/05 10:08:00;;;;;;;5.35;2.70;;;36.90;35.90;;;;;;5052631;28;20111;-12
2022/07/05 10:10:28;;;;;;;5.55;2.88;;;36.90;34.60;;;;;;5052493;28;20025;-13
2022/07/05 10:12:59;;;;;;;6.10;2.80;;;37.10;35.20;;;;;;5052738;28;20028;-12
2022/07/05 10:15:28;;;;;;;4.95;2.53;;;37.40;34.40;;;;;;5052382;28;20496;-12
2022/07/05 10:18:03;;;;;;;5.72;2.80;;;37.40;34.70;;;;;;5053095;28;20465;-12
2022/07/05 10:20:45;;;;;;;5.72;3.10;;;37.40;34.20;;;;;;5052393;28;20021;-12
2022/07/05 10:23:15;;;;;;;4.32;2.65;;;37.60;34.00;;;;;;5034652;28;20473;-12
2022/07/05 10:25:48;;;;;;;5.80;2.80;;;37.90;33.80;;;;;;5053765;28;20033;-12
2022/07/05 10:28:15;;;;;;;4.40;2.50;;;38.30;33.20;;;;;;5055936;28;20056;-14
2022/07/05 10:30:44;;;;;;;3.17;2.42;;;38.60;32.00;;;;;;5056088;28;20033;-12
2022/07/05 10:33:11;;;;;;;4.28;2.60;;;39.00;31.20;;;;;;5056059;28;20499;-12
2022/07/05 10:35:39;;;;;;;6.05;2.70;;;39.30;30.80;;;;;;5055943;28;20017;-12
2022/07/05 10:38:08;;;;;;;7.82;2.67;;;39.40;30.50;;;;;;5056196;28;20029;-12
2022/07/05 10:40:35;;;;;;;3.45;2.50;;;39.70;30.60;;;;;;5055538;28;20511;-12
2022/07/05 10:43:03;;;;;;;3.88;2.50;;;39.90;30.60;;;;;;5056196;28;20423;-12
2022/07/05 10:45:38;;;;;;;6.63;2.90;;;40.20;29.50;;;;;;5055976;28;20518;-12
2022/07/05 10:48:10;;;;;;;3.72;2.45;;;40.40;29.40;;;;;;5056025;28;20017;-11
2022/07/05 10:50:56;;;;;;;3.83;2.40;;;40.50;29.40;;;;;;5055488;28;20033;-12
2022/07/05 10:53:26;;;;;;;2.80;2.10;;;40.70;29.00;;;;;;5055755;28;20100;-12
2022/07/05 10:55:59;;;;;;;4.88;2.40;;;40.80;30.00;;;;;;5037860;28;20032;-12
2022/07/05 10:58:30;;;;;;;4.97;2.50;;;40.80;29.40;;;;;;5055206;28;20055;-13
2022/07/05 11:01:18;;;;;;;3.80;2.17;;;40.90;29.70;;;;;;5055461;28;20041;-12
2022/07/05 11:03:47;;;;;;;5.82;2.50;;;41.10;28.50;;;;;;5055681;28;20500;-13
2022/07/05 11:06:29;;;;;;;6.38;2.35;;;41.40;28.20;;;;;;5055703;28;20102;-12
2022/07/05 11:09:04;;;;;;;;;;;41.60;28.40;;;;;;5055727;28;20032;-12
2022/07/05 11:11:33;;;;;;;4.40;2.30;;;41.90;26.30;;;;;;5055387;28;19912;-12
2022/07/05 11:14:01;;;;;;;3.65;2.42;;;42.00;26.60;;;;;;5055461;28;20056;-12
2022/07/05 11:16:35;;;;;;;6.88;2.75;;;41.80;27.00;;;;;;5055058;28;20021;-13
2022/07/05 11:19:10;;;;;;;5.35;2.17;;;41.70;27.50;;;;;;5056085;28;20059;-12
2022/07/05 11:21:38;;;;;;;4.70;2.50;;;41.60;28.10;;;;;;5055085;28;20032;-13
2022/07/05 11:24:21;;;;;;;3.92;2.42;;;41.60;27.80;;;;;;5055232;28;20385;-13
2022/07/05 11:26:49;;;;;;;2.80;2.33;;;41.90;26.90;;;;;;5055563;28;20032;-12
2022/07/05 11:29:44;;;;;;;2.67;2.25;;;41.90;27.30;;;;;;5054897;28;20032;-12
2022/07/05 11:32:14;;;;;;;5.45;2.25;;;42.30;26.40;;;;;;5055540;28;20473;-12
2022/07/05 11:34:41;;;;;;;4.78;2.65;;;42.60;26.90;;;;;;5054887;28;20488;-12
2022/07/05 11:37:18;;;;;;;2.75;2.38;;;43.00;26.00;;;;;;5053940;28;20032;-12
2022/07/05 11:39:46;;;;;;;5.88;2.60;;;43.30;26.20;;;;;;5054789;28;20037;-13
2022/07/05 11:42:22;;;;;;;4.97;2.63;;;43.40;26.50;;;;;;5054741;28;20523;-12
2022/07/05 11:44:52;;;;;;;5.50;2.60;;;43.70;26.10;;;;;;5054613;28;20060;-13
2022/07/05 11:47:19;;;;;;;4.03;2.60;;;43.80;26.10;;;;;;5054764;28;20071;-13
2022/07/05 11:49:58;;;;;;;3.28;2.30;;;43.70;26.20;;;;;;5036807;28;20131;-12
2022/07/05 11:52:32;;;;;;;3.17;2.20;;;43.70;25.70;;;;;;5054157;28;20435;-13
2022/07/05 11:55:00;;;;;;;6.07;2.53;;;44.00;25.80;;;;;;5054451;28;20049;-12
2022/07/05 11:57:26;;;;;;;3.08;2.28;;;44.40;24.90;;;;;;5054232;28;20053;-12
2022/07/05 11:59:53;;;;;;;4.22;1.95;;;44.70;25.10;;;;;;5054586;28;20021;-12
2022/07/05 12:02:19;;;;;;;4.97;2.08;;;45.10;24.80;;;;;;5054179;28;20380;-12
2022/07/05 12:04:50;;;;;;;4.57;2.42;;;45.40;24.70;;;;;;5036690;28;20028;-13
2022/07/05 12:07:30;;;;;;;4.95;2.50;;;45.20;24.50;;;;;;5054609;28;20029;-13
2022/07/05 12:12:42;;;;;;;8.57;2.67;;;43.90;25.40;;;;;;5054392;28;20164;-13
2022/07/05 12:15:19;;;;;;;6.45;2.80;;;43.60;25.80;;;;;;5054290;28;20024;-13
2022/07/05 12:17:48;;;;;;;7.50;2.70;;;43.50;25.20;;;;;;5054112;28;20118;-13
2022/07/05 12:20:23;;;;;;;6.10;2.65;;;43.40;24.90;;;;;;5053808;28;20068;-13
2022/07/05 12:22:49;;;;;;;7.47;2.65;;;43.00;25.50;;;;;;5054021;28;20078;-13
2022/07/05 12:25:23;;;;;;;8.75;2.60;;;42.70;25.60;;;;;;5053906;28;20025;-13
2022/07/05 12:27:52;;;;;;;6.05;2.65;;;42.60;25.70;;;;;;5054096;28;20147;-13
2022/07/05 12:30:19;;;;;;;4.63;2.60;;;42.60;25.50;;;;;;5053699;28;20111;-13
2022/07/05 12:32:54;;;;;;;4.85;2.60;;;42.10;26.10;;;;;;5053765;28;20036;-12
2022/07/05 12:35:50;;;;;;;7.32;2.67;;;42.00;26.40;;;;;;5053702;28;20025;-13
2022/07/05 12:38:20;;;;;;;5.30;2.53;;;41.90;25.90;;;;;;5053836;28;20079;-13
2022/07/05 12:40:57;;;;;;;3.88;2.58;;;41.70;26.30;;;;;;5054605;28;20021;-13
2022/07/05 12:43:23;;;;;;;6.70;2.70;;;41.60;26.60;;;;;;5053805;28;20025;-13
2022/07/05 12:46:00;;;;;;;9.25;2.90;;;41.80;26.50;;;;;;5053458;28;20412;-13
2022/07/05 12:48:35;;;;;;;5.05;2.63;;;42.10;26.10;;;;;;5053004;28;20040;-13
2022/07/05 12:51:02;;;;;;;3.13;2.25;;;42.30;26.30;;;;;;5053538;28;20021;-13
2022/07/05 12:59:04;;;;;;;4.10;2.58;;;43.40;25.00;;;;;;5053779;28;20048;-12
2022/07/05 13:01:37;;;;;;;3.45;2.42;;;43.20;24.90;;;;;;5053393;28;20477;-13
2022/07/05 13:04:09;;;;;;;3.53;2.30;;;42.90;25.40;;;;;;5053605;28;20029;-13
2022/07/05 13:06:47;;;;;;;;;;;42.40;25.90;;;;;;5053308;28;20179;-13
2022/07/05 13:09:15;;;;;;;6.68;2.63;;;42.30;26.30;;;;;;5053387;28;20375;-12
2022/07/05 13:11:42;;;;;;;5.25;2.78;;;42.30;26.50;;;;;;5053127;28;20568;-13